Time;durP1;ratioP1;P1;durP2;ratioP2;P2;SDS_P1;SDS_P2;PMS_P1;PMS_P2;Temp;Humidity;BMP_temperature;BMP_pressure;BME280_temperature;BME280_humidity;BME280_pressure;Samples;Min_cycle;Max_cycle;Signal;HPM_P1;HPM_P2
2023/02/06 00:00:50;;;;;;;16.60;10.40;;;;;;;-1.22;81.01;101786.84;106687;1251;71675;-82
2023/02/06 00:03:18;;;;;;;14.70;10.30;;;;;;;-1.16;80.85;101791.35;105849;1252;60852;-83
2023/02/06 00:05:56;;;;;;;14.00;10.30;;;;;;;-1.12;80.90;101789.33;106007;1251;61387;-85
2023/02/06 00:08:23;;;;;;;17.70;10.30;;;;;;;-1.13;80.75;101795.16;105966;1251;73590;-83
2023/02/06 00:13:15;;;;;;;17.00;10.90;;;;;;;-1.09;80.71;101794.48;103161;1290;599757;-82
2023/02/06 00:15:48;;;;;;;16.00;11.00;;;;;;;-1.16;80.57;101797.52;105801;1263;60134;-83
2023/02/06 00:18:25;;;;;;;16.50;10.30;;;;;;;-1.24;80.61;101796.95;105433;1259;61148;-83
2023/02/06 00:20:54;;;;;;;14.00;10.70;;;;;;;-1.29;80.95;101798.80;105428;1265;73051;-82
2023/02/06 00:23:23;;;;;;;16.00;10.20;;;;;;;-1.33;81.06;101793.63;105662;1263;65036;-83
2023/02/06 00:25:51;;;;;;;16.30;10.00;;;;;;;-1.38;80.89;101789.83;105151;1261;809688;-84
2023/02/06 00:28:19;;;;;;;17.00;9.60;;;;;;;-1.44;81.36;101793.54;106001;1255;62349;-83
2023/02/06 00:30:48;;;;;;;16.20;11.10;;;;;;;-1.45;81.21;101792.50;105886;1253;59962;-85
2023/02/06 00:33:16;;;;;;;16.60;10.70;;;;;;;-1.43;81.25;101801.44;107508;1251;72789;-82
2023/02/06 00:35:48;;;;;;;15.40;10.00;;;;;;;-1.42;81.13;101799.89;107710;1252;63768;-83
2023/02/06 00:38:17;;;;;;;14.30;8.80;;;;;;;-1.45;80.99;101801.08;106123;1255;73604;-82
2023/02/06 00:40:46;;;;;;;17.90;11.40;;;;;;;-1.46;81.30;101795.76;106046;1251;59664;-83
2023/02/06 00:43:15;;;;;;;19.50;11.70;;;;;;;-1.45;81.17;101796.62;106332;1251;60683;-83
2023/02/06 00:45:43;;;;;;;19.20;12.20;;;;;;;-1.42;81.07;101800.77;105919;1251;73888;-83
2023/02/06 00:48:15;;;;;;;16.40;10.00;;;;;;;-1.42;81.00;101800.23;106080;1255;64793;-85
2023/02/06 00:50:43;;;;;;;17.80;11.80;;;;;;;-1.43;80.88;101802.29;106062;1255;73587;-83
2023/02/06 00:53:12;;;;;;;16.60;10.80;;;;;;;-1.45;80.77;101805.88;106223;1256;62858;-80
2023/02/06 00:55:40;;;;;;;20.90;11.40;;;;;;;-1.46;80.91;101805.88;106146;1251;61113;-84
2023/02/06 00:58:09;;;;;;;15.90;10.30;;;;;;;-1.48;80.82;101803.45;105996;1253;73633;-83
2023/02/06 01:00:37;;;;;;;18.30;11.90;;;;;;;-1.48;81.10;101803.98;106392;1251;63674;-81
2023/02/06 01:03:06;;;;;;;15.80;10.70;;;;;;;-1.48;81.01;101804.48;106553;1255;73598;-80
2023/02/06 01:05:37;;;;;;;15.20;10.00;;;;;;;-1.45;81.07;101802.79;107760;1255;61993;-82
2023/02/06 01:08:06;;;;;;;18.50;10.40;;;;;;;-1.42;80.72;101800.23;106188;1253;61392;-82
2023/02/06 01:10:35;;;;;;;15.00;10.00;;;;;;;-1.40;80.64;101798.36;106183;1255;73064;-83
2023/02/06 01:13:03;;;;;;;14.60;10.20;;;;;;;-1.42;79.94;101794.23;106983;1251;64761;-83
2023/02/06 01:15:36;;;;;;;18.80;11.80;;;;;;;-1.49;79.76;101795.05;106460;1255;72178;-82
2023/02/06 01:18:05;;;;;;;17.90;10.80;;;;;;;-1.50;79.96;101793.65;108999;1251;60315;-84
2023/02/06 01:20:33;;;;;;;18.20;11.80;;;;;;;-1.54;79.52;101797.05;106674;1255;60308;-84
2023/02/06 01:23:04;;;;;;;19.50;11.10;;;;;;;-1.57;79.64;101801.99;106420;1256;73834;-83
2023/02/06 01:25:32;;;;;;;13.80;9.90;;;;;;;-1.59;79.35;101797.36;106810;1251;64783;-83
2023/02/06 01:28:02;;;;;;;16.50;9.40;;;;;;;-1.60;79.35;101799.55;106316;1253;71821;-84
2023/02/06 01:30:30;;;;;;;15.90;10.10;;;;;;;-1.64;79.21;101800.38;105976;1255;62167;-84
2023/02/06 01:32:59;;;;;;;14.10;8.80;;;;;;;-1.70;79.27;101802.73;106053;1253;61463;-83
2023/02/06 01:35:28;;;;;;;17.30;11.30;;;;;;;-1.69;79.70;101806.16;106055;1253;74100;-82
2023/02/06 01:37:56;;;;;;;17.40;10.60;;;;;;;-1.71;79.75;101805.14;106099;1255;63974;-84
2023/02/06 01:40:25;;;;;;;16.90;9.90;;;;;;;-1.69;79.80;101804.28;105886;1251;72584;-85
2023/02/06 01:42:54;;;;;;;19.10;11.80;;;;;;;-1.64;79.85;101809.66;106020;1255;60481;-84
2023/02/06 01:45:25;;;;;;;19.30;12.80;;;;;;;-1.65;79.82;101813.93;106379;1251;61586;-85
2023/02/06 01:48:02;;;;;;;18.00;11.70;;;;;;;-1.62;79.91;101814.11;106140;1251;73998;-82
2023/02/06 01:50:31;;;;;;;18.50;11.30;;;;;;;-1.61;79.86;101816.19;106616;1252;64670;-84
2023/02/06 01:52:59;;;;;;;17.80;12.00;;;;;;;-1.62;79.75;101820.46;107055;1251;73789;-81
2023/02/06 01:55:27;;;;;;;19.20;12.00;;;;;;;-1.66;79.73;101814.44;108246;1252;61189;-83
2023/02/06 01:57:59;;;;;;;19.10;11.10;;;;;;;-1.66;79.90;101814.27;107363;1253;60281;-83
2023/02/06 02:00:27;;;;;;;18.70;12.40;;;;;;;-1.62;80.19;101815.84;108155;1251;73821;-82
2023/02/06 02:02:56;;;;;;;16.50;11.10;;;;;;;-1.58;80.01;101819.15;107186;1251;63861;-82
2023/02/06 02:05:24;;;;;;;18.00;11.20;;;;;;;-1.58;80.09;101821.72;106148;1256;73394;-83
2023/02/06 02:08:00;;;;;;;20.40;11.40;;;;;;;-1.60;80.04;101823.06;105994;1251;59605;-84
2023/02/06 02:10:29;;;;;;;19.00;12.20;;;;;;;-1.64;80.11;101823.03;106096;1251;61418;-83
2023/02/06 02:12:59;;;;;;;22.80;11.80;;;;;;;-1.69;80.10;101824.86;106011;1252;74478;-84
2023/02/06 02:15:37;;;;;;;20.20;12.80;;;;;;;-1.74;80.20;101817.61;106064;1256;64503;-82
2023/02/06 02:18:23;;;;;;;24.40;14.30;;;;;;;-1.79;80.08;101819.09;105984;1252;73000;-86
2023/02/06 02:21:10;;;;;;;20.70;13.30;;;;;;;-1.84;80.54;101819.90;106017;1255;60182;-84
2023/02/06 02:24:11;;;;;;;20.70;12.50;;;;;;;-1.88;80.82;101826.20;105944;1251;60286;-83
2023/02/06 02:26:47;;;;;;;20.60;13.10;;;;;;;-1.85;81.05;101830.35;105459;1260;72525;-84
2023/02/06 02:29:24;;;;;;;19.20;12.50;;;;;;;-1.84;81.12;101837.56;105507;1256;65049;-86
2023/02/06 02:32:07;;;;;;;23.20;13.90;;;;;;;-1.81;81.23;101836.56;105557;1256;73608;-83
2023/02/06 02:34:46;;;;;;;20.50;11.80;;;;;;;-1.78;81.38;101841.23;105687;1260;60283;-83
2023/02/06 02:37:38;;;;;;;18.80;11.50;;;;;;;-1.74;80.97;101846.07;105713;1257;59955;-82
2023/02/06 02:40:41;;;;;;;21.20;13.40;;;;;;;-1.75;80.73;101847.59;105655;1256;74328;-82
2023/02/06 02:43:15;;;;;;;23.40;13.10;;;;;;;-1.80;80.76;101848.39;106888;1256;64641;-80
2023/02/06 02:45:56;;;;;;;21.20;13.00;;;;;;;-1.84;80.84;101843.91;107879;1256;73342;-84
2023/02/06 02:48:27;;;;;;;22.30;13.80;;;;;;;-1.86;80.85;101846.61;105759;1256;62035;-83
2023/02/06 02:50:57;;;;;;;19.70;12.90;;;;;;;-1.86;80.83;101846.80;105589;1260;60686;-82
2023/02/06 02:53:26;;;;;;;23.00;13.80;;;;;;;-1.87;80.53;101849.69;105604;1256;73098;-84
2023/02/06 02:55:54;;;;;;;18.20;12.60;;;;;;;-1.88;80.78;101846.95;105785;1261;65389;-83
2023/02/06 02:58:26;;;;;;;21.00;13.70;;;;;;;-1.87;80.63;101848.15;105610;1256;72598;-84
2023/02/06 03:01:07;;;;;;;22.50;12.80;;;;;;;-1.85;80.48;101847.48;105600;1260;62396;-82
2023/02/06 03:03:37;;;;;;;18.60;12.20;;;;;;;-1.88;80.33;101846.60;105756;1253;61341;-83
2023/02/06 03:06:18;;;;;;;22.00;12.80;;;;;;;-1.88;80.46;101846.95;105998;1251;74034;-83
2023/02/06 03:09:08;;;;;;;25.60;14.20;;;;;;;-1.89;80.56;101840.09;106278;1255;64543;-83
2023/02/06 03:11:43;;;;;;;23.20;13.90;;;;;;;-1.86;80.63;101840.45;105942;1251;72429;-80
2023/02/06 03:14:24;;;;;;;19.20;12.20;;;;;;;-1.88;80.45;101844.02;106534;1253;60200;-82
2023/02/06 03:16:58;;;;;;;26.80;15.90;;;;;;;-1.91;80.42;101847.26;106521;1253;60303;-83
2023/02/06 03:19:30;;;;;;;23.30;14.30;;;;;;;-1.92;80.28;101847.59;106000;1253;72971;-82
2023/02/06 03:22:00;;;;;;;26.60;14.80;;;;;;;-1.96;80.14;101849.77;106084;1251;64248;-83
2023/02/06 03:24:31;;;;;;;20.20;13.40;;;;;;;-2.03;80.19;101849.86;106059;1253;73861;-84
2023/02/06 03:27:21;;;;;;;24.30;14.70;;;;;;;-2.05;80.70;101848.46;107692;1251;61179;-82
2023/02/06 03:29:49;;;;;;;24.50;12.80;;;;;;;-2.03;80.67;101846.59;106820;1253;61443;-82
2023/02/06 03:32:22;;;;;;;21.60;12.40;;;;;;;-2.01;80.45;101854.16;106478;1252;73779;-82
2023/02/06 03:34:58;;;;;;;24.30;13.30;;;;;;;-2.00;80.22;101851.27;107313;1253;63659;-83
2023/02/06 03:37:27;;;;;;;22.90;13.50;;;;;;;-1.99;79.89;101848.54;106294;1253;72596;-81
2023/02/06 03:40:15;;;;;;;21.00;13.50;;;;;;;-1.95;79.77;101849.79;106734;1253;61181;-82
2023/02/06 03:42:47;;;;;;;20.60;12.10;;;;;;;-1.91;79.41;101850.50;106436;1253;59953;-82
2023/02/06 03:45:17;;;;;;;25.30;15.00;;;;;;;-1.91;78.68;101852.91;106874;1253;73085;-83
2023/02/06 03:47:46;;;;;;;21.50;12.70;;;;;;;-2.00;78.42;101852.80;106533;1253;64726;-83
2023/02/06 03:50:14;;;;;;;22.50;14.40;;;;;;;-2.08;78.72;101852.88;106365;1253;73691;-81
2023/02/06 03:52:45;;;;;;;23.70;13.30;;;;;;;-2.10;78.75;101856.63;106995;1253;61169;-81
2023/02/06 03:55:17;;;;;;;20.90;13.70;;;;;;;-2.08;78.85;101853.73;106064;1252;59976;-83
2023/02/06 03:57:49;;;;;;;22.70;13.90;;;;;;;-2.04;78.91;101855.84;105916;1253;73074;-85
2023/02/06 04:00:18;;;;;;;22.40;13.40;;;;;;;-1.99;78.84;101854.70;105980;1258;64744;-83
2023/02/06 04:02:46;;;;;;;25.10;16.20;;;;;;;-1.96;78.66;101858.50;105905;1256;74460;-84
2023/02/06 04:05:15;;;;;;;24.60;15.60;;;;;;;-1.93;78.51;101858.20;105960;1257;60549;-85
2023/02/06 04:07:51;;;;;;;;;;;;;;;-1.97;78.37;101860.22;105998;1258;61671;-85
2023/02/06 04:10:20;;;;;;;25.80;14.90;;;;;;;-2.01;78.13;101865.48;108147;1257;73658;-83
2023/02/06 04:12:49;;;;;;;22.90;14.60;;;;;;;-2.08;77.84;101863.15;106461;1253;65272;-83
2023/02/06 04:15:17;;;;;;;27.30;16.10;;;;;;;-2.14;77.95;101865.33;106038;1253;73570;-84
2023/02/06 04:17:46;;;;;;;25.50;14.90;;;;;;;-2.17;78.11;101868.53;106117;1257;62733;-83
2023/02/06 04:20:28;;;;;;;27.00;15.40;;;;;;;-2.19;78.37;101871.77;106104;1253;61142;-81
2023/02/06 04:22:58;;;;;;;24.40;13.80;;;;;;;-2.18;78.35;101869.91;107030;1253;74218;-84
2023/02/06 04:25:27;;;;;;;26.30;16.30;;;;;;;-2.16;78.26;101873.69;107384;1257;65170;-83
2023/02/06 04:27:56;;;;;;;24.90;15.30;;;;;;;-2.17;78.36;101875.39;106410;1253;72729;-82
2023/02/06 04:30:24;;;;;;;26.30;15.80;;;;;;;-2.18;78.20;101879.50;106295;1257;60543;-84
2023/02/06 04:32:53;;;;;;;26.30;14.60;;;;;;;-2.17;78.15;101885.16;106326;1253;61336;-83
2023/02/06 04:35:22;;;;;;;28.60;16.70;;;;;;;-2.14;78.12;101886.21;106113;1257;74654;-83
2023/02/06 04:37:50;;;;;;;27.60;15.50;;;;;;;-2.13;78.07;101890.18;106142;1252;63788;-84
2023/02/06 04:40:18;;;;;;;28.90;16.40;;;;;;;-2.13;77.92;101887.77;106383;1257;72634;-84
2023/02/06 04:42:47;;;;;;;27.40;14.60;;;;;;;-2.16;77.52;101889.44;106356;1253;62285;-83
2023/02/06 04:45:15;;;;;;;24.70;15.50;;;;;;;-2.24;77.57;101891.23;106492;1257;61333;-82
2023/02/06 04:47:48;;;;;;;27.00;15.90;;;;;;;-2.31;77.66;101893.54;106376;1253;75009;-83
2023/02/06 04:50:17;;;;;;;28.50;16.20;;;;;;;-2.38;77.66;101897.38;106102;1253;63993;-84
2023/02/06 04:52:45;;;;;;;26.00;15.00;;;;;;;-2.38;77.96;101900.95;107145;1253;72752;-83
2023/02/06 04:55:14;;;;;;;28.40;15.80;;;;;;;-2.40;77.77;101905.74;107069;1253;60855;-84
2023/02/06 04:57:43;;;;;;;25.10;14.20;;;;;;;-2.45;77.77;101909.77;106015;1255;61336;-82
2023/02/06 05:00:12;;;;;;;26.50;15.00;;;;;;;-2.50;78.07;101910.21;106125;1253;73537;-83
2023/02/06 05:02:40;;;;;;;28.10;16.00;;;;;;;-2.54;78.03;101909.14;106095;1253;64492;-82
2023/02/06 05:05:08;;;;;;;26.50;15.90;;;;;;;-2.54;78.30;101911.36;105886;1257;73634;-85
2023/02/06 05:07:37;;;;;;;27.00;14.50;;;;;;;-2.50;78.22;101914.84;106082;1256;60598;-85
2023/02/06 05:10:07;;;;;;;29.10;16.70;;;;;;;-2.51;78.04;101912.94;106451;1253;60839;-83
2023/02/06 05:12:37;;;;;;;27.50;16.40;;;;;;;-2.57;77.84;101916.79;106811;1253;74583;-81
2023/02/06 05:15:06;;;;;;;29.30;16.70;;;;;;;-2.61;78.03;101918.95;106712;1253;63753;-84
2023/02/06 05:17:35;;;;;;;27.10;14.70;;;;;;;-2.61;77.90;101918.27;106127;1256;73660;-83
2023/02/06 05:20:04;;;;;;;21.80;13.90;;;;;;;-2.63;77.54;101924.40;106187;1253;61107;-84
2023/02/06 05:22:33;;;;;;;24.50;14.20;;;;;;;-2.69;77.52;101926.52;106160;1253;60707;-87
2023/02/06 05:25:01;;;;;;;23.00;12.90;;;;;;;-2.75;77.35;101934.48;106007;1253;73715;-83
2023/02/06 05:27:30;;;;;;;23.20;13.50;;;;;;;-2.78;77.06;101936.81;105991;1252;64499;-83
2023/02/06 05:29:58;;;;;;;22.40;12.90;;;;;;;-2.81;77.12;101937.47;105909;1258;72541;-85
2023/02/06 05:32:27;;;;;;;23.30;13.50;;;;;;;-2.82;77.38;101932.31;105847;1253;60548;-83
2023/02/06 05:34:55;;;;;;;28.40;14.50;;;;;;;-2.81;77.05;101937.13;106280;1253;61040;-83
2023/02/06 05:37:23;;;;;;;23.50;13.80;;;;;;;-2.84;76.60;101940.83;108547;1253;73655;-83
2023/02/06 05:39:52;;;;;;;22.70;13.50;;;;;;;-2.90;76.47;101941.92;106117;1256;64835;-83
2023/02/06 05:42:20;;;;;;;27.00;15.40;;;;;;;-2.94;76.37;101940.16;106036;1253;73599;-84
2023/02/06 05:44:48;;;;;;;26.70;15.60;;;;;;;-2.97;76.26;101937.87;105927;1253;60636;-85
2023/02/06 05:47:16;;;;;;;24.90;13.50;;;;;;;-3.01;76.33;101938.31;106096;1253;61548;-84
2023/02/06 05:49:47;;;;;;;22.90;13.90;;;;;;;-3.07;76.03;101939.95;106155;1258;74818;-81
2023/02/06 05:52:18;;;;;;;29.00;15.90;;;;;;;-3.15;75.99;101942.54;106112;1253;63697;-84
2023/02/06 05:54:46;;;;;;;24.90;14.90;;;;;;;-3.20;75.64;101946.73;106070;1253;72679;-84
2023/02/06 05:57:14;;;;;;;27.60;13.80;;;;;;;-3.20;75.85;101951.34;106185;1258;61136;-83
2023/02/06 05:59:44;;;;;;;20.80;11.70;;;;;;;-3.18;76.24;101952.73;106321;1253;61115;-82
2023/02/06 06:02:12;;;;;;;24.10;13.50;;;;;;;-3.17;75.69;101957.55;107212;1253;73784;-83
2023/02/06 06:04:41;;;;;;;24.30;13.30;;;;;;;-3.11;76.10;101960.56;107368;1253;63874;-82
2023/02/06 06:07:09;;;;;;;23.50;15.00;;;;;;;-3.00;75.86;101964.70;107388;1257;73590;-85
2023/02/06 06:09:37;;;;;;;23.30;13.50;;;;;;;-2.85;75.70;101966.14;106664;1256;60448;-84
2023/02/06 06:12:05;;;;;;;24.10;13.80;;;;;;;-2.70;75.10;101967.23;107065;1253;60318;-85
2023/02/06 06:14:34;;;;;;;23.90;13.30;;;;;;;-2.46;74.59;101965.58;106871;1257;74584;-83
2023/02/06 06:17:03;;;;;;;23.30;14.10;;;;;;;-2.06;74.38;101965.13;106786;1253;64844;-83
2023/02/06 06:19:32;;;;;;;24.20;13.00;;;;;;;-1.56;73.29;101970.92;108753;1253;73692;-83
2023/02/06 06:22:00;;;;;;;21.70;13.70;;;;;;;-1.06;72.25;101978.30;106747;1254;60550;-83
2023/02/06 06:24:32;;;;;;;20.20;12.20;;;;;;;-0.53;71.34;101981.88;106801;1254;61195;-83
2023/02/06 06:27:02;;;;;;;20.60;13.60;;;;;;;0.01;70.07;101984.30;106749;1257;73758;-84
2023/02/06 06:29:31;;;;;;;22.80;13.50;;;;;;;0.54;68.20;101986.09;106131;1253;64951;-84
2023/02/06 06:32:00;;;;;;;22.30;13.70;;;;;;;0.97;66.31;101986.55;106100;1259;73632;-84
2023/02/06 06:34:28;;;;;;;18.90;12.00;;;;;;;1.13;63.95;101987.78;106037;1256;60445;-85
2023/02/06 06:36:57;;;;;;;19.00;11.60;;;;;;;0.98;62.64;101987.40;106006;1253;61463;-83
2023/02/06 06:39:25;;;;;;;21.30;14.40;;;;;;;0.73;62.14;101982.89;105993;1259;74269;-83
2023/02/06 06:41:56;;;;;;;18.30;12.20;;;;;;;0.41;61.59;101983.98;106036;1253;64141;-83
2023/02/06 06:44:25;;;;;;;21.70;13.30;;;;;;;0.01;61.52;101981.20;106256;1254;73639;-86
2023/02/06 06:46:53;;;;;;;20.90;13.10;;;;;;;-0.41;62.12;101979.55;107875;1253;60539;-86
2023/02/06 06:49:22;;;;;;;20.60;12.10;;;;;;;-0.67;62.78;101977.13;107341;1252;60315;-85
2023/02/06 06:51:51;;;;;;;20.30;11.80;;;;;;;-0.88;63.11;101977.11;106850;1254;74563;-85
2023/02/06 06:54:21;;;;;;;20.20;12.70;;;;;;;-1.04;63.64;101978.16;107988;1256;63859;-86
2023/02/06 06:56:49;;;;;;;20.00;12.50;;;;;;;-1.19;63.92;101973.70;106329;1253;72624;-85
2023/02/06 06:59:17;;;;;;;18.70;11.60;;;;;;;-1.34;64.27;101973.56;106196;1253;61978;-85
2023/02/06 07:01:47;;;;;;;20.30;12.90;;;;;;;-1.43;64.77;101972.77;107786;1253;61340;-86
2023/02/06 07:04:19;;;;;;;16.10;10.20;;;;;;;-1.50;65.14;101971.49;107120;1253;73489;-86
2023/02/06 07:06:50;;;;;;;14.60;9.70;;;;;;;-1.59;65.57;101970.38;106305;1253;63998;-85
2023/02/06 07:09:19;;;;;;;19.90;12.20;;;;;;;-1.61;65.75;101976.16;106390;1253;73538;-85
2023/02/06 07:11:47;;;;;;;22.00;10.60;;;;;;;-1.62;65.72;101975.48;106471;1257;60568;-86
2023/02/06 07:14:15;;;;;;;18.40;10.80;;;;;;;-1.69;65.49;101981.55;106224;1253;60610;-86
2023/02/06 07:16:43;;;;;;;17.00;11.00;;;;;;;-1.85;65.62;101978.61;106364;1254;73729;-85
2023/02/06 07:19:12;;;;;;;17.10;10.30;;;;;;;-2.04;65.97;101975.09;106142;1253;64823;-86
2023/02/06 07:21:41;;;;;;;24.70;15.30;;;;;;;-2.18;66.54;101975.73;106114;1253;72361;-86
2023/02/06 07:24:10;;;;;;;21.80;13.20;;;;;;;-2.21;66.93;101974.86;106026;1258;60549;-85
2023/02/06 07:26:40;;;;;;;16.10;10.10;;;;;;;-2.12;67.31;101971.91;106116;1253;61498;-85
2023/02/06 07:29:09;;;;;;;20.60;14.10;;;;;;;-2.04;67.29;101970.30;106015;1257;74653;-83
2023/02/06 07:31:37;;;;;;;19.00;11.40;;;;;;;-1.98;67.34;101971.75;106361;1258;64744;-84
2023/02/06 07:34:06;;;;;;;20.50;11.30;;;;;;;-1.95;67.44;101974.02;106086;1257;71647;-86
2023/02/06 07:36:35;;;;;;;18.70;10.90;;;;;;;-1.91;67.43;101975.96;106198;1253;62917;-83
2023/02/06 07:39:04;;;;;;;17.80;10.10;;;;;;;-1.88;67.38;101977.02;106132;1253;61148;-85
2023/02/06 07:41:32;;;;;;;20.60;12.90;;;;;;;-1.80;67.72;101979.02;107023;1256;75142;-85
2023/02/06 07:44:01;;;;;;;22.80;13.30;;;;;;;-1.72;67.83;101974.14;108208;1253;63543;-85
2023/02/06 07:46:29;;;;;;;21.30;12.20;;;;;;;-1.67;67.71;101974.73;107958;1256;72672;-86
2023/02/06 07:48:57;;;;;;;19.10;11.90;;;;;;;-1.62;67.49;101975.80;105855;1258;60453;-86
2023/02/06 07:51:26;;;;;;;19.40;11.60;;;;;;;-1.56;67.67;101975.02;106095;1253;61276;-85
2023/02/06 07:53:55;;;;;;;21.60;12.10;;;;;;;-1.49;67.61;101973.05;105980;1257;74625;-85
2023/02/06 07:56:24;;;;;;;19.70;12.60;;;;;;;-1.42;67.53;101975.36;106063;1257;64513;-85
2023/02/06 07:58:53;;;;;;;19.60;12.20;;;;;;;-1.40;67.49;101969.73;105893;1253;71329;-87
2023/02/06 08:01:21;;;;;;;22.30;12.70;;;;;;;-1.38;67.44;101968.72;106189;1253;60427;-86
2023/02/06 08:03:53;;;;;;;14.70;9.40;;;;;;;-1.38;67.51;101966.14;105933;1259;61034;-86
2023/02/06 08:06:22;;;;;;;20.30;11.30;;;;;;;-1.39;67.27;101966.48;106472;1259;75014;-84
2023/02/06 08:08:54;;;;;;;15.90;9.70;;;;;;;-1.38;67.29;101963.23;107673;1253;63846;-85
2023/02/06 08:11:29;;;;;;;14.60;9.00;;;;;;;-1.34;67.04;101962.92;108890;1257;72336;-85
2023/02/06 08:14:03;;;;;;;23.10;13.70;;;;;;;-1.33;66.94;101961.05;107316;1258;60614;-81
2023/02/06 08:16:33;;;;;;;17.80;11.10;;;;;;;-1.34;67.18;101965.16;107213;1260;60281;-85
2023/02/06 08:19:01;;;;;;;19.80;10.50;;;;;;;-1.31;67.16;101965.88;106917;1260;73857;-84
2023/02/06 08:21:30;;;;;;;21.20;11.60;;;;;;;-1.27;67.22;101963.86;106990;1258;63285;-84
2023/02/06 08:23:59;;;;;;;18.00;11.70;;;;;;;-1.24;67.20;101964.91;107260;1260;71681;-85
2023/02/06 08:26:28;;;;;;;19.30;12.30;;;;;;;-1.20;67.05;101965.83;106917;1260;60729;-83
2023/02/06 08:28:59;;;;;;;15.40;10.30;;;;;;;-1.13;67.15;101962.80;108537;1258;61125;-84
2023/02/06 08:31:33;;;;;;;16.50;10.80;;;;;;;-1.08;66.93;101962.35;107622;1260;73940;-85
2023/02/06 08:34:03;;;;;;;18.50;11.50;;;;;;;-1.04;66.94;101964.09;108401;1257;64512;-83
2023/02/06 08:36:31;;;;;;;17.90;10.90;;;;;;;-1.08;66.90;101960.27;107253;1260;73082;-84
2023/02/06 08:39:00;;;;;;;20.90;12.40;;;;;;;-1.16;66.89;101961.21;106927;1257;60589;-84
2023/02/06 08:41:31;;;;;;;16.10;10.30;;;;;;;-1.23;67.13;101966.64;107258;1260;61068;-85
2023/02/06 08:44:01;;;;;;;20.40;11.10;;;;;;;-1.26;67.36;101966.79;106614;1257;74859;-84
2023/02/06 08:46:30;;;;;;;23.80;13.50;;;;;;;-1.24;67.66;101972.12;107324;1261;64509;-84
2023/02/06 08:49:05;;;;;;;24.40;14.50;;;;;;;-1.16;67.65;101975.98;106092;1257;72550;-84
2023/02/06 08:51:34;;;;;;;20.50;13.40;;;;;;;-1.07;67.54;101975.39;106333;1257;61265;-85
2023/02/06 08:54:04;;;;;;;19.60;12.80;;;;;;;-1.07;67.22;101972.29;106207;1256;61202;-84
2023/02/06 08:56:34;;;;;;;24.00;15.10;;;;;;;-1.14;67.29;101971.20;106922;1257;73667;-83
2023/02/06 08:59:04;;;;;;;15.50;10.50;;;;;;;-1.15;67.79;101970.67;106953;1260;63918;-85
2023/02/06 09:01:36;;;;;;;15.10;10.50;;;;;;;-1.09;67.75;101963.37;107097;1256;72561;-84
2023/02/06 09:04:09;;;;;;;16.00;10.90;;;;;;;-1.04;67.73;101960.48;106501;1257;60435;-85
2023/02/06 09:06:42;;;;;;;17.70;10.20;;;;;;;-1.01;67.70;101958.63;106944;1260;60443;-84
2023/02/06 09:09:11;;;;;;;14.30;9.70;;;;;;;-0.92;67.94;101962.32;106862;1256;75246;-85
2023/02/06 09:11:40;;;;;;;18.40;11.10;;;;;;;-0.81;67.66;101961.04;108567;1256;63856;-83
2023/02/06 09:14:14;;;;;;;15.20;9.80;;;;;;;-0.78;67.44;101954.54;106966;1260;73577;-84
2023/02/06 09:16:43;;;;;;;14.40;10.10;;;;;;;-0.77;67.77;101947.17;107025;1256;60524;-83
2023/02/06 09:19:12;;;;;;;14.80;8.90;;;;;;;-0.70;67.65;101944.98;106754;1256;60904;-84
2023/02/06 09:21:40;;;;;;;15.20;9.50;;;;;;;-0.67;67.54;101945.52;107281;1257;73546;-84
2023/02/06 09:24:09;;;;;;;17.70;11.10;;;;;;;-0.59;67.56;101944.55;107419;1263;63692;-86
2023/02/06 09:26:40;;;;;;;19.00;11.80;;;;;;;-0.45;67.57;101944.83;106870;1260;73631;-85
2023/02/06 09:29:30;;;;;;;17.00;10.70;;;;;;;-0.28;67.45;101934.12;106621;1257;60575;-85
2023/02/06 09:31:59;;;;;;;17.70;12.10;;;;;;;-0.14;66.90;101937.80;106315;1256;61592;-85
2023/02/06 09:34:28;;;;;;;14.80;10.10;;;;;;;-0.03;66.39;101938.04;106108;1260;74552;-85
2023/02/06 09:36:57;;;;;;;22.30;13.90;;;;;;;-0.01;65.71;101931.35;105798;1260;62844;-83
2023/02/06 09:39:26;;;;;;;16.30;11.40;;;;;;;0.09;65.45;101933.61;105712;1260;71804;-85
2023/02/06 09:41:58;;;;;;;13.60;9.90;;;;;;;0.35;65.29;101939.39;105979;1257;60539;-85
2023/02/06 09:44:36;;;;;;;13.30;9.50;;;;;;;0.91;64.88;101939.70;105802;1257;61370;-83
2023/02/06 09:47:06;;;;;;;12.80;9.50;;;;;;;1.64;63.36;101937.97;105742;1260;74164;-85
2023/02/06 09:49:43;;;;;;;14.80;8.90;;;;;;;2.22;61.47;101937.63;106024;1260;62815;-86
2023/02/06 09:52:19;;;;;;;12.10;8.80;;;;;;;2.54;60.17;101936.27;106772;1260;73615;-83
2023/02/06 09:55:02;;;;;;;12.80;9.40;;;;;;;2.80;59.74;101930.58;108431;1257;59475;-85
2023/02/06 09:57:50;;;;;;;15.90;10.30;;;;;;;3.08;59.15;101924.85;107499;1257;60318;-84
2023/02/06 10:00:32;;;;;;;13.80;10.30;;;;;;;3.19;57.23;101928.04;107298;1256;73810;-85
2023/02/06 10:03:22;;;;;;;13.80;10.00;;;;;;;3.01;56.83;101925.94;107700;1256;64834;-83
2023/02/06 10:06:15;;;;;;;14.80;10.80;;;;;;;2.80;57.08;101919.52;107657;1256;72627;-86
2023/02/06 10:08:49;;;;;;;13.60;10.20;;;;;;;2.82;57.91;101916.92;107698;1256;60440;-84
2023/02/06 10:11:49;;;;;;;15.10;9.80;;;;;;;2.90;57.44;101913.25;108499;1256;60540;-84
2023/02/06 10:14:40;;;;;;;14.20;10.40;;;;;;;2.89;57.40;101903.23;108151;1256;74088;-84
2023/02/06 10:17:23;;;;;;;15.20;10.60;;;;;;;2.86;57.40;101908.96;107845;1257;63755;-85
2023/02/06 10:19:55;;;;;;;13.30;10.10;;;;;;;2.74;57.69;101902.81;107561;1256;72594;-82
2023/02/06 10:22:45;;;;;;;16.60;10.20;;;;;;;2.49;58.09;101902.81;107589;1256;60247;-87
2023/02/06 10:25:29;;;;;;;12.20;9.00;;;;;;;2.18;58.64;101902.12;107791;1257;60358;-83
2023/02/06 10:28:22;;;;;;;16.00;10.80;;;;;;;1.89;59.59;101901.70;107784;1257;74636;-84
2023/02/06 10:31:11;;;;;;;15.50;10.80;;;;;;;1.64;60.31;101901.95;107295;1260;65127;-85
2023/02/06 10:33:54;;;;;;;15.70;11.10;;;;;;;1.55;61.05;101900.59;107047;1257;73835;-85
2023/02/06 10:36:51;;;;;;;16.10;11.80;;;;;;;1.56;61.54;101899.73;107866;1256;60425;-85
2023/02/06 10:39:32;;;;;;;11.70;8.80;;;;;;;1.52;61.30;101901.45;107093;1257;60788;-86
2023/02/06 10:42:28;;;;;;;11.00;8.20;;;;;;;1.45;61.24;101901.11;107311;1258;73479;-86
2023/02/06 10:45:09;;;;;;;11.30;7.90;;;;;;;1.34;61.29;101898.55;107115;1259;63660;-86
2023/02/06 10:48:04;;;;;;;12.10;8.60;;;;;;;1.44;62.07;101900.42;107337;1256;72599;-84
2023/02/06 10:50:41;;;;;;;14.60;9.10;;;;;;;1.64;61.55;101893.85;108513;1256;60413;-84
2023/02/06 10:53:32;;;;;;;12.50;8.70;;;;;;;1.77;61.26;101895.19;108109;1257;60283;-87
2023/02/06 10:56:05;;;;;;;12.50;8.30;;;;;;;1.95;60.82;101892.55;108005;1256;75228;-83
2023/02/06 10:58:39;;;;;;;12.10;8.70;;;;;;;2.08;60.00;101895.42;107594;1256;63929;-84
2023/02/06 11:01:09;;;;;;;13.60;9.10;;;;;;;2.25;59.51;101890.69;108080;1258;72317;-87
2023/02/06 11:04:13;;;;;;;14.80;10.30;;;;;;;2.36;59.05;101885.98;108324;1257;60399;-86
2023/02/06 11:06:45;;;;;;;14.30;9.10;;;;;;;2.42;59.09;101882.83;107854;1256;60434;-85
2023/02/06 11:09:15;;;;;;;13.70;10.00;;;;;;;2.53;58.81;101883.63;107611;1258;73786;-86
2023/02/06 11:11:48;;;;;;;14.40;9.50;;;;;;;2.61;58.67;101883.40;107522;1257;62803;-86
2023/02/06 11:14:24;;;;;;;13.70;9.70;;;;;;;2.70;58.30;101883.50;107705;1256;72821;-85
2023/02/06 11:16:52;;;;;;;15.20;10.80;;;;;;;2.66;58.21;101880.43;108049;1257;60354;-84
2023/02/06 11:19:52;;;;;;;16.80;12.50;;;;;;;2.59;58.58;101885.67;108412;1256;60002;-85
2023/02/06 11:22:27;;;;;;;16.10;12.80;;;;;;;2.48;59.01;101883.84;108484;1255;73800;-85
2023/02/06 11:25:19;;;;;;;32.80;20.70;;;;;;;2.43;59.24;101884.02;107686;1258;64389;-84
2023/02/06 11:27:47;;;;;;;18.80;11.90;;;;;;;2.30;59.37;101883.58;106106;1257;72682;-84
2023/02/06 11:30:36;;;;;;;18.70;13.50;;;;;;;2.20;59.53;101880.52;106409;1255;60456;-86